Airfield :
LOGIN :

Register | Disclaimer

   EN    FR    IT 

 










Legend :    VFR   Marginal VFR   IFR   Intensive IFR   Very Intensive IFR
Visi :
Ceiling :
>= 8 km
>= 3000ft
5 to 8 km
1000 to 3000 ft
1500m to 5 km
500 to 1000 ft
800 to 1500m
200 to 500 ft
< 800m
< 200 ft
Symbols :   Thunderstorms  Fog  Heavy snow  Heavy precipitations  Wind > 20 kt
SIGMETs :     Misc.  Thunderstorms  Icing  Turbulence  Mountain Waves  Volcanic Ashes






- Airport Elevation : 505 ft
- IATA code : SXB


LFST - Strasbourg

CURRENT METAR :
  • 071900Z AUTO 31002KT 9999 BKN054 OVC180 15/12 Q1020 NOSIG

EXPIRED METARs :
  • 071830Z AUTO VRB02KT 9999 FEW060 BKN180 BKN200 15/12 Q1020 NOSIG
  • 071800Z AUTO 36002KT 9999 FEW043 BKN200 16/12 Q1020 NOSIG
  • 071730Z AUTO 34003KT 9999 SCT043 BKN170 16/12 Q1020 NOSIG
  • 071700Z AUTO 35003KT 9999 FEW050 SCT160 BKN180 17/12 Q1020 NOSIG
  • 071630Z AUTO 35005KT CAVOK 18/12 Q1020 NOSIG

TAF TAF LFST
Valid from the 07 at 18:00 until the 08 at 18:00 UTC


071700Z 0718/0818 VRB03KT CAVOK
PROB30
TEMPO 0723/0806 2500 MIFG
BECMG 0810/0812 31010KT
BECMG 0815/0818 CAVOK



MET'MAP, your aeronautical weather chart ! - Copyright ORBIFLY December 2007 - Disclaimer

ORBIFLY MET'MAP TEAM :

Programming & Development : Alexandra Zaïnal
Original concept : Baudouin d'Aumeries
Technical & hardware support : Manuel Goepfert
Assistance : Marc-Olivier Méhu




SOURCES & CREDITS :

   NOAA